Time;durP1;ratioP1;P1;durP2;ratioP2;P2;SDS_P1;SDS_P2;PMS_P1;PMS_P2;Temp;Humidity;BMP_temperature;BMP_pressure;BME280_temperature;BME280_humidity;BME280_pressure;Samples;Min_cycle;Max_cycle;Signal;HPM_P1;HPM_P2
2021/09/06 00:02:03;;;;;;;21.42;13.02;;;14.50;99.90;;;;;;12495046;28;20128;-36
2021/09/06 00:08:05;;;;;;;18.67;12.63;;;14.30;99.90;;;;;;12511071;28;20053;-36
2021/09/06 00:14:07;;;;;;;23.77;13.93;;;14.30;99.90;;;;;;12513188;28;20076;-38
2021/09/06 00:20:10;;;;;;;22.33;13.23;;;14.20;99.90;;;;;;12511248;28;20117;-36
2021/09/06 00:26:11;;;;;;;20.33;12.85;;;14.10;99.90;;;;;;12511322;28;20049;-36
2021/09/06 00:32:13;;;;;;;20.70;13.98;;;14.10;99.90;;;;;;12510321;28;20808;-37
2021/09/06 00:38:17;;;;;;;22.60;13.65;;;14.00;99.90;;;;;;12514655;28;20469;-36
2021/09/06 00:44:22;;;;;;;21.70;13.37;;;13.90;99.90;;;;;;12516172;28;20049;-39
2021/09/06 00:50:24;;;;;;;22.35;15.00;;;13.80;99.90;;;;;;12513522;28;20040;-36
2021/09/06 00:56:26;;;;;;;21.85;13.88;;;13.70;99.90;;;;;;12514137;28;20136;-36
2021/09/06 01:02:28;;;;;;;22.33;14.60;;;13.80;99.90;;;;;;12515950;28;20049;-36
2021/09/06 01:08:30;;;;;;;25.38;16.02;;;13.70;99.90;;;;;;12512479;28;20084;-36
2021/09/06 01:14:32;;;;;;;23.25;14.85;;;13.60;99.90;;;;;;12513613;28;20087;-36
2021/09/06 01:20:34;;;;;;;23.38;15.45;;;13.60;99.90;;;;;;12507744;28;20084;-37
2021/09/06 01:26:36;;;;;;;29.75;16.52;;;13.60;99.90;;;;;;12513682;28;20053;-36
2021/09/06 01:32:39;;;;;;;25.27;15.32;;;13.60;99.90;;;;;;12513887;28;20045;-36
2021/09/06 01:38:43;;;;;;;21.33;14.82;;;13.50;99.90;;;;;;12513559;28;20053;-36
2021/09/06 01:44:44;;;;;;;22.50;14.32;;;13.60;99.90;;;;;;12510296;28;20136;-37
2021/09/06 01:50:46;;;;;;;24.17;15.05;;;13.70;99.90;;;;;;12508201;28;20057;-37
2021/09/06 01:56:48;;;;;;;24.13;15.48;;;13.60;99.90;;;;;;12491365;28;20045;-37
2021/09/06 02:02:50;;;;;;;25.60;15.88;;;13.50;99.90;;;;;;12518087;28;20052;-36
2021/09/06 02:08:52;;;;;;;23.65;15.77;;;13.40;99.90;;;;;;12521703;28;20056;-36
2021/09/06 02:14:54;;;;;;;25.30;15.65;;;13.40;99.90;;;;;;12519346;28;20112;-36
2021/09/06 02:20:56;;;;;;;25.17;16.27;;;13.30;99.90;;;;;;12520185;28;20095;-36
2021/09/06 02:26:58;;;;;;;23.23;16.33;;;13.30;99.90;;;;;;12521767;28;20072;-37
2021/09/06 02:33:00;;;;;;;24.67;15.88;;;13.30;99.90;;;;;;12517729;28;20888;-36
2021/09/06 02:39:04;;;;;;;25.48;16.65;;;13.30;99.90;;;;;;12517010;28;20453;-36
2021/09/06 02:45:07;;;;;;;22.17;15.52;;;13.20;99.90;;;;;;12515723;28;20045;-36
2021/09/06 02:51:09;;;;;;;22.93;16.37;;;13.20;99.90;;;;;;12518023;28;20518;-36
2021/09/06 02:57:11;;;;;;;27.77;17.27;;;13.10;99.90;;;;;;12517227;28;20065;-37
2021/09/06 03:03:13;;;;;;;27.52;16.38;;;12.90;99.90;;;;;;12511149;28;20171;-36
2021/09/06 03:09:16;;;;;;;24.52;15.98;;;12.80;99.90;;;;;;12496339;28;20456;-37
2021/09/06 03:15:18;;;;;;;25.52;16.40;;;12.90;99.90;;;;;;12514540;28;20059;-37
2021/09/06 03:21:19;;;;;;;25.23;16.60;;;12.80;99.90;;;;;;12509154;28;20139;-36
2021/09/06 03:27:21;;;;;;;29.83;17.52;;;12.70;99.90;;;;;;12521859;28;20048;-36
2021/09/06 03:33:24;;;;;;;29.10;15.90;;;12.60;99.90;;;;;;12512459;28;20467;-37
2021/09/06 03:39:26;;;;;;;23.45;17.00;;;12.60;99.90;;;;;;12512203;28;20052;-37
2021/09/06 03:45:30;;;;;;;27.02;17.80;;;12.50;99.90;;;;;;12510514;28;20041;-36
2021/09/06 03:51:31;;;;;;;28.20;17.50;;;12.50;99.90;;;;;;12509047;28;20044;-37
2021/09/06 03:57:33;;;;;;;25.08;16.75;;;12.40;99.90;;;;;;12513389;28;20535;-37
2021/09/06 04:03:35;;;;;;;27.75;17.73;;;12.50;99.90;;;;;;12507566;28;20052;-38
2021/09/06 04:09:37;;;;;;;26.27;17.02;;;12.40;99.90;;;;;;12509604;28;20583;-37
2021/09/06 04:15:39;;;;;;;27.90;16.67;;;12.30;99.90;;;;;;12510806;28;20097;-37
2021/09/06 04:21:42;;;;;;;29.65;18.30;;;12.30;99.90;;;;;;12508306;28;20049;-38
2021/09/06 04:27:44;;;;;;;29.40;18.00;;;12.20;99.90;;;;;;12513058;28;20421;-37
2021/09/06 04:33:49;;;;;;;30.88;18.23;;;12.10;99.90;;;;;;12513679;28;20045;-36
2021/09/06 04:39:51;;;;;;;30.08;18.20;;;12.10;99.90;;;;;;12513976;28;20064;-38
2021/09/06 04:45:54;;;;;;;25.85;16.83;;;12.10;99.90;;;;;;12507473;28;20045;-37
2021/09/06 04:51:56;;;;;;;25.98;16.58;;;12.20;99.90;;;;;;12505216;28;21038;-37
2021/09/06 04:57:58;;;;;;;32.50;19.27;;;12.20;99.90;;;;;;12509986;28;20081;-39
2021/09/06 05:04:00;;;;;;;31.60;17.42;;;12.10;99.90;;;;;;12511873;28;20088;-36
2021/09/06 05:10:03;;;;;;;33.58;17.77;;;12.10;99.90;;;;;;12508457;28;20041;-37
2021/09/06 05:16:05;;;;;;;30.02;17.90;;;12.00;99.90;;;;;;12510723;28;20149;-36
2021/09/06 05:22:08;;;;;;;29.60;16.70;;;12.10;99.90;;;;;;12502840;28;20056;-36
2021/09/06 05:28:10;;;;;;;26.80;15.73;;;12.10;99.90;;;;;;12510795;28;20084;-37
2021/09/06 05:34:12;;;;;;;32.90;18.95;;;12.20;99.90;;;;;;12492835;28;20056;-37
2021/09/06 05:40:14;;;;;;;31.73;18.42;;;12.20;99.90;;;;;;12508134;28;20103;-37
2021/09/06 05:46:16;;;;;;;30.33;18.90;;;12.20;99.90;;;;;;12501869;28;20045;-36
2021/09/06 05:52:18;;;;;;;29.10;18.13;;;12.20;99.90;;;;;;12502081;28;20084;-37
2021/09/06 05:58:19;;;;;;;32.67;19.17;;;12.30;99.90;;;;;;12501971;28;20053;-36
2021/09/06 06:04:22;;;;;;;30.58;18.75;;;12.40;99.90;;;;;;12501191;28;20410;-37
2021/09/06 06:10:27;;;;;;;30.13;18.58;;;12.50;99.90;;;;;;12500186;28;24219;-37
2021/09/06 06:16:31;;;;;;;31.63;18.48;;;12.60;99.90;;;;;;12505792;28;20484;-37
2021/09/06 06:22:34;;;;;;;29.13;17.33;;;12.60;99.90;;;;;;12490949;28;20502;-37
2021/09/06 06:28:36;;;;;;;27.98;14.98;;;12.50;99.90;;;;;;12500975;28;20052;-37
2021/09/06 06:34:43;;;;;;;24.35;15.35;;;12.50;99.90;;;;;;12499564;28;20076;-38
2021/09/06 06:40:53;;;;;;;23.25;14.82;;;12.50;99.90;;;;;;12502493;28;20278;-36
2021/09/06 06:46:57;;;;;;;24.30;14.05;;;12.60;99.90;;;;;;12512668;28;20478;-38
2021/09/06 06:52:59;;;;;;;24.50;15.50;;;12.70;99.90;;;;;;12514951;28;20045;-37
2021/09/06 06:59:03;;;;;;;25.08;15.75;;;12.70;99.90;;;;;;12482125;28;20053;-36
2021/09/06 07:05:09;;;;;;;26.23;16.25;;;12.80;99.90;;;;;;12512200;28;20052;-37
2021/09/06 07:11:12;;;;;;;28.77;17.15;;;13.00;99.90;;;;;;12514628;28;20049;-38
2021/09/06 07:17:14;;;;;;;29.80;17.30;;;13.10;99.90;;;;;;12517627;28;20092;-37
2021/09/06 07:23:19;;;;;;;28.30;17.17;;;13.20;99.90;;;;;;12518004;28;20057;-37
2021/09/06 07:29:22;;;;;;;30.33;18.00;;;13.30;99.90;;;;;;12517062;28;20052;-38
2021/09/06 07:35:24;;;;;;;30.75;17.42;;;13.40;99.90;;;;;;12514866;28;20060;-37
2021/09/06 07:41:26;;;;;;;30.88;18.20;;;13.60;99.90;;;;;;12484902;28;20054;-38
2021/09/06 07:47:31;;;;;;;29.35;17.02;;;13.70;99.90;;;;;;12511329;28;20604;-39
2021/09/06 07:53:34;;;;;;;28.10;16.40;;;13.90;99.90;;;;;;12509416;28;20102;-37
2021/09/06 07:59:36;;;;;;;30.05;18.02;;;14.00;99.90;;;;;;12509750;28;20520;-37
2021/09/06 08:05:37;;;;;;;28.83;16.80;;;14.00;99.90;;;;;;12509046;28;20048;-36
2021/09/06 08:11:45;;;;;;;23.05;14.45;;;14.30;99.90;;;;;;12484338;28;20045;-38
2021/09/06 08:17:48;;;;;;;27.02;16.50;;;14.60;99.90;;;;;;12514374;28;20175;-38
2021/09/06 08:23:52;;;;;;;29.58;18.38;;;14.70;99.90;;;;;;12510044;28;20060;-37
2021/09/06 08:29:58;;;;;;;28.77;17.33;;;15.10;99.90;;;;;;12510585;28;20752;-37
2021/09/06 08:36:01;;;;;;;29.88;18.17;;;15.30;99.90;;;;;;12508819;28;20594;-37
2021/09/06 08:42:08;;;;;;;26.95;17.75;;;15.50;99.90;;;;;;12511155;28;20047;-36
2021/09/06 08:48:10;;;;;;;26.00;17.95;;;15.60;99.90;;;;;;12505198;28;20218;-37
2021/09/06 08:54:12;;;;;;;24.38;17.08;;;15.70;99.90;;;;;;12508944;28;20132;-37
2021/09/06 09:00:14;;;;;;;27.38;16.88;;;15.90;99.90;;;;;;12506617;28;20048;-36
2021/09/06 09:06:18;;;;;;;26.33;16.10;;;16.10;99.90;;;;;;12507166;28;20503;-38
2021/09/06 09:12:21;;;;;;;44.83;20.95;;;16.20;99.90;;;;;;12507802;28;20064;-38
2021/09/06 09:18:33;;;;;;;31.70;19.70;;;16.50;99.90;;;;;;12512082;28;20053;-38
2021/09/06 09:24:37;;;;;;;29.75;18.98;;;16.70;99.90;;;;;;12506186;28;20045;-38
2021/09/06 09:30:41;;;;;;;27.95;17.92;;;17.00;99.90;;;;;;12508213;28;20136;-37
2021/09/06 09:36:44;;;;;;;31.13;19.02;;;17.00;99.90;;;;;;12509262;28;20499;-37
2021/09/06 09:42:50;;;;;;;33.78;20.13;;;17.00;99.90;;;;;;12503672;28;20083;-37
2021/09/06 09:48:52;;;;;;;23.58;16.20;;;17.40;99.90;;;;;;12498185;28;20073;-37
2021/09/06 09:54:57;;;;;;;24.13;16.45;;;17.70;99.90;;;;;;12508693;28;21361;-38
2021/09/06 10:01:02;;;;;;;26.60;17.45;;;18.20;99.90;;;;;;12504547;28;20057;-39
2021/09/06 10:07:05;;;;;;;29.92;17.52;;;18.20;99.90;;;;;;12507356;28;20048;-38
2021/09/06 10:13:16;;;;;;;24.80;15.77;;;18.10;99.90;;;;;;12507485;28;20742;-38
2021/09/06 10:19:19;;;;;;;26.40;15.18;;;18.60;99.90;;;;;;12507383;28;20092;-38
2021/09/06 10:25:29;;;;;;;21.88;14.00;;;19.10;99.90;;;;;;12514356;28;20153;-38
2021/09/06 10:31:31;;;;;;;21.83;15.05;;;19.10;99.90;;;;;;12508988;28;20045;-37
2021/09/06 10:37:37;;;;;;;16.95;11.57;;;19.10;99.90;;;;;;12516858;28;20128;-38
2021/09/06 10:44:07;;;;;;;19.80;12.25;;;19.20;99.90;;;;;;12518627;28;20160;-37
2021/09/06 10:50:17;;;;;;;18.77;11.27;;;19.40;99.90;;;;;;12513185;28;20056;-39
2021/09/06 10:56:24;;;;;;;19.50;11.07;;;19.90;99.90;;;;;;12512133;28;20045;-38
2021/09/06 11:02:27;;;;;;;16.15;11.35;;;20.20;99.90;;;;;;12512911;28;20072;-37
2021/09/06 11:08:36;;;;;;;17.63;11.48;;;20.60;99.90;;;;;;12516179;28;20056;-39
2021/09/06 11:14:43;;;;;;;16.27;8.70;;;20.40;99.90;;;;;;12506765;28;20048;-38
2021/09/06 11:20:46;;;;;;;17.17;10.10;;;20.60;99.90;;;;;;12518652;28;20048;-42
2021/09/06 11:26:49;;;;;;;16.85;10.30;;;21.00;99.90;;;;;;12521405;28;20048;-38
2021/09/06 11:32:52;;;;;;;12.30;8.93;;;21.40;99.90;;;;;;12514409;28;20579;-38
2021/09/06 11:38:54;;;;;;;13.07;9.33;;;21.40;99.90;;;;;;12514088;28;20094;-39
2021/09/06 11:45:00;;;;;;;12.52;8.68;;;20.90;99.90;;;;;;12493932;28;20097;-38
2021/09/06 11:51:10;;;;;;;15.57;8.18;;;20.50;99.90;;;;;;12511614;28;20053;-41
2021/09/06 11:57:23;;;;;;;14.20;9.25;;;20.20;99.90;;;;;;12516705;28;20110;-38
2021/09/06 12:03:26;;;;;;;11.80;7.70;;;20.60;99.90;;;;;;12514688;28;20554;-38
2021/09/06 12:09:29;;;;;;;13.30;8.20;;;21.10;99.90;;;;;;12510396;28;20064;-38
2021/09/06 12:15:50;;;;;;;11.85;7.90;;;21.30;99.90;;;;;;12513880;28;20056;-41
2021/09/06 12:21:53;;;;;;;15.88;10.20;;;21.20;99.90;;;;;;12506906;28;20045;-38
2021/09/06 12:28:06;;;;;;;13.73;8.82;;;21.10;99.90;;;;;;12508943;28;20056;-38
2021/09/06 12:34:09;;;;;;;13.30;9.20;;;21.30;99.90;;;;;;12510693;28;20066;-38
2021/09/06 12:40:12;;;;;;;15.73;10.10;;;21.10;99.90;;;;;;12511901;28;20056;-38
2021/09/06 12:46:14;;;;;;;14.07;8.68;;;20.70;99.90;;;;;;12509443;28;20102;-41
2021/09/06 12:52:16;;;;;;;12.90;8.73;;;21.10;99.90;;;;;;12511359;28;20053;-40
2021/09/06 12:58:18;;;;;;;14.30;8.45;;;21.70;99.90;;;;;;12509434;28;20057;-38
2021/09/06 13:04:21;;;;;;;12.32;7.78;;;22.10;99.90;;;;;;12505733;28;20057;-41
2021/09/06 13:10:30;;;;;;;10.48;7.88;;;22.00;99.90;;;;;;12492478;28;20072;-38
2021/09/06 13:16:33;;;;;;;10.38;7.32;;;22.20;99.90;;;;;;12515293;28;20085;-37
2021/09/06 13:22:37;;;;;;;12.43;7.60;;;22.40;99.90;;;;;;12515468;28;20052;-38
2021/09/06 13:28:41;;;;;;;11.13;7.10;;;22.50;99.90;;;;;;12516538;28;20053;-39
2021/09/06 13:34:44;;;;;;;12.23;7.72;;;22.50;99.90;;;;;;12508904;28;20049;-38
2021/09/06 13:40:46;;;;;;;9.70;6.45;;;22.80;99.90;;;;;;12509040;28;20160;-38
2021/09/06 13:46:51;;;;;;;12.23;7.80;;;22.80;99.90;;;;;;12505510;28;20102;-38
2021/09/06 13:52:54;;;;;;;17.27;8.77;;;22.30;99.90;;;;;;12514199;28;20299;-39
2021/09/06 13:58:57;;;;;;;13.52;8.25;;;22.60;99.90;;;;;;12508155;28;20503;-38
2021/09/06 14:05:00;;;;;;;12.15;7.05;;;22.60;99.90;;;;;;12509054;28;20053;-38
2021/09/06 14:11:02;;;;;;;9.48;6.38;;;21.80;99.90;;;;;;12490242;28;20060;-38
2021/09/06 14:17:05;;;;;;;8.13;5.47;;;21.70;99.90;;;;;;12506456;28;20509;-37
2021/09/06 14:23:08;;;;;;;8.30;5.30;;;21.40;99.90;;;;;;12505481;28;20045;-38
2021/09/06 14:29:10;;;;;;;8.02;5.53;;;21.10;99.90;;;;;;12508347;28;20489;-39
2021/09/06 14:35:13;;;;;;;7.40;4.80;;;21.00;99.90;;;;;;12507980;28;20529;-44
2021/09/06 14:41:15;;;;;;;8.63;5.00;;;21.30;99.90;;;;;;12506168;28;20073;-39
2021/09/06 14:47:19;;;;;;;7.47;4.97;;;21.80;99.90;;;;;;12509078;28;20053;-38
2021/09/06 14:53:21;;;;;;;7.47;4.93;;;21.80;99.90;;;;;;12504264;28;20053;-38
2021/09/06 14:59:26;;;;;;;7.17;4.87;;;21.50;99.90;;;;;;12494774;28;20112;-38
2021/09/06 15:05:28;;;;;;;6.55;4.70;;;21.10;99.90;;;;;;12514744;28;20492;-39
2021/09/06 15:11:30;;;;;;;6.57;3.95;;;20.70;99.90;;;;;;12512510;28;20053;-40
2021/09/06 15:17:33;;;;;;;6.40;4.30;;;20.30;99.90;;;;;;12513776;28;20052;-41
2021/09/06 15:23:35;;;;;;;7.60;4.20;;;20.30;99.90;;;;;;12508790;28;20388;-38
2021/09/06 15:30:04;;;;;;;7.65;4.72;;;20.30;99.90;;;;;;12514456;28;20516;-38
2021/09/06 15:36:07;;;;;;;7.32;5.07;;;20.00;99.90;;;;;;12511719;28;20526;-37
2021/09/06 15:42:12;;;;;;;6.57;4.28;;;20.30;99.90;;;;;;12509319;28;21157;-37
2021/09/06 15:48:14;;;;;;;7.80;4.40;;;20.40;99.90;;;;;;12513546;28;20041;-38
2021/09/06 15:54:16;;;;;;;5.93;3.90;;;20.30;99.90;;;;;;12514606;28;20401;-37
2021/09/06 16:00:18;;;;;;;7.15;4.35;;;20.00;99.90;;;;;;12516069;28;20760;-38
2021/09/06 16:06:22;;;;;;;6.90;3.75;;;19.90;99.90;;;;;;12508809;28;20049;-37
2021/09/06 16:12:24;;;;;;;7.93;4.00;;;19.70;99.90;;;;;;12511762;28;20136;-37
2021/09/06 16:18:26;;;;;;;5.53;3.60;;;19.70;99.90;;;;;;12511693;28;20094;-38
2021/09/06 16:24:28;;;;;;;6.40;3.95;;;19.80;99.90;;;;;;12512693;28;20825;-37
2021/09/06 16:30:33;;;;;;;6.03;4.00;;;20.40;99.90;;;;;;12507099;28;20048;-37
2021/09/06 16:36:35;;;;;;;6.93;4.38;;;20.70;99.90;;;;;;12493009;28;20504;-42
2021/09/06 16:42:38;;;;;;;7.40;4.05;;;20.90;99.90;;;;;;12505644;28;20049;-38
2021/09/06 16:48:40;;;;;;;5.40;4.17;;;21.00;99.90;;;;;;12512008;28;20049;-39
2021/09/06 16:54:42;;;;;;;9.02;4.80;;;20.80;99.90;;;;;;12516683;28;20095;-37
2021/09/06 17:00:44;;;;;;;5.47;3.75;;;20.30;99.90;;;;;;12508958;28;20045;-37
2021/09/06 17:06:47;;;;;;;6.78;4.32;;;20.10;99.90;;;;;;12511285;28;20796;-37
2021/09/06 17:12:49;;;;;;;7.57;4.30;;;19.80;99.90;;;;;;12512135;28;20087;-37
2021/09/06 17:18:51;;;;;;;6.63;3.72;;;19.60;99.90;;;;;;12510844;28;20063;-38
2021/09/06 17:24:54;;;;;;;8.35;4.15;;;19.50;99.90;;;;;;12490247;28;20057;-39
2021/09/06 17:30:56;;;;;;;8.33;3.67;;;19.20;99.90;;;;;;12506189;28;20049;-37
2021/09/06 17:36:58;;;;;;;6.60;4.20;;;19.10;99.90;;;;;;12505050;28;20049;-37
2021/09/06 17:43:00;;;;;;;10.27;4.03;;;18.80;99.90;;;;;;12510098;28;20054;-38
2021/09/06 17:49:02;;;;;;;7.80;4.22;;;18.70;99.90;;;;;;12505561;28;20065;-38
2021/09/06 17:55:05;;;;;;;9.45;4.28;;;18.50;99.90;;;;;;12507239;28;20455;-37
2021/09/06 18:01:07;;;;;;;7.27;4.90;;;18.30;99.90;;;;;;12475329;28;20059;-38
2021/09/06 18:07:09;;;;;;;6.82;4.30;;;18.10;99.90;;;;;;12503921;28;20045;-38
2021/09/06 18:13:11;;;;;;;9.13;4.95;;;18.00;99.90;;;;;;12507050;28;20049;-38
2021/09/06 18:19:14;;;;;;;8.38;4.43;;;18.00;99.90;;;;;;12505872;28;20405;-38
2021/09/06 18:25:17;;;;;;;7.57;5.03;;;17.80;99.90;;;;;;12503898;28;20052;-39
2021/09/06 18:31:19;;;;;;;8.52;4.75;;;17.90;99.90;;;;;;12508273;28;20136;-38
2021/09/06 18:37:21;;;;;;;6.85;4.85;;;17.80;99.90;;;;;;12506786;28;20148;-38
2021/09/06 18:43:24;;;;;;;7.07;4.40;;;17.80;99.90;;;;;;12509112;28;20146;-37
2021/09/06 18:49:25;;;;;;;6.53;4.55;;;17.80;99.90;;;;;;12520168;28;20079;-38
2021/09/06 18:55:28;;;;;;;8.13;4.88;;;17.70;99.90;;;;;;12495322;28;20056;-38
2021/09/06 19:01:29;;;;;;;10.40;5.07;;;17.70;99.90;;;;;;12517415;28;20651;-37
2021/09/06 19:07:32;;;;;;;8.75;4.93;;;17.60;99.90;;;;;;12500546;28;20478;-38
2021/09/06 19:13:34;;;;;;;7.80;4.60;;;17.60;99.90;;;;;;12515041;28;20544;-38
2021/09/06 19:19:40;;;;;;;7.43;4.70;;;17.60;99.90;;;;;;12506267;28;20076;-37
2021/09/06 19:25:42;;;;;;;8.95;5.07;;;17.50;99.90;;;;;;12494300;28;20106;-38
2021/09/06 19:31:44;;;;;;;8.70;4.60;;;17.50;99.90;;;;;;12495436;28;20052;-38
2021/09/06 19:37:46;;;;;;;11.18;5.43;;;17.40;99.90;;;;;;12519745;28;20045;-38
2021/09/06 19:43:49;;;;;;;10.23;5.07;;;17.40;99.90;;;;;;12513235;28;20447;-39
2021/09/06 19:49:52;;;;;;;10.95;5.50;;;17.30;99.90;;;;;;12511548;28;20049;-38
2021/09/06 19:55:55;;;;;;;;;;;17.30;99.90;;;;;;12512480;28;20096;-38
2021/09/06 20:01:58;;;;;;;8.70;5.50;;;17.20;99.90;;;;;;12511939;28;19977;-37
2021/09/06 20:08:02;;;;;;;11.63;6.38;;;17.00;99.90;;;;;;12512109;28;20049;-41
2021/09/06 20:14:07;;;;;;;10.93;6.28;;;16.90;99.90;;;;;;12505700;28;20481;-39
2021/09/06 20:20:10;;;;;;;12.55;5.53;;;16.80;99.90;;;;;;12511018;28;20087;-38
2021/09/06 20:26:12;;;;;;;7.70;5.50;;;16.80;99.90;;;;;;12506378;28;20049;-37
2021/09/06 20:32:14;;;;;;;14.23;6.13;;;16.70;99.90;;;;;;12508144;28;20057;-37
2021/09/06 20:38:16;;;;;;;12.02;6.05;;;16.80;99.90;;;;;;12512270;28;20444;-37
2021/09/06 20:44:18;;;;;;;8.38;5.57;;;16.80;99.90;;;;;;12507271;28;20194;-37
2021/09/06 20:50:20;;;;;;;13.55;6.18;;;16.80;99.90;;;;;;12511404;28;20053;-37
2021/09/06 20:56:22;;;;;;;9.10;6.20;;;16.80;99.90;;;;;;12508821;28;20618;-37
2021/09/06 21:02:24;;;;;;;9.95;5.95;;;16.80;99.90;;;;;;12507392;28;20052;-39
2021/09/06 21:08:26;;;;;;;9.35;5.60;;;16.80;99.90;;;;;;12510121;28;20045;-39
2021/09/06 21:14:28;;;;;;;10.10;5.72;;;16.80;99.90;;;;;;12509844;28;20135;-37
2021/09/06 21:20:30;;;;;;;11.48;5.80;;;16.60;99.90;;;;;;12507433;28;20095;-40
2021/09/06 21:26:33;;;;;;;10.82;6.05;;;16.70;99.90;;;;;;12507800;28;20397;-37
2021/09/06 21:32:35;;;;;;;9.07;6.00;;;16.50;99.90;;;;;;12504098;28;20122;-37
2021/09/06 21:38:44;;;;;;;8.75;6.00;;;16.50;99.90;;;;;;12507881;28;20186;-38
2021/09/06 21:44:52;;;;;;;11.50;6.65;;;16.50;99.90;;;;;;12507186;28;20045;-39
2021/09/06 21:50:56;;;;;;;12.05;7.13;;;16.50;99.90;;;;;;12504774;28;20045;-38
2021/09/06 21:56:57;;;;;;;9.80;6.35;;;16.40;99.90;;;;;;12509168;28;20106;-37
2021/09/06 22:02:59;;;;;;;9.18;6.40;;;16.30;99.90;;;;;;12500886;28;20123;-37
2021/09/06 22:09:01;;;;;;;8.27;6.25;;;16.20;99.90;;;;;;12504339;28;20045;-37
2021/09/06 22:15:04;;;;;;;8.70;6.40;;;16.30;99.90;;;;;;12506544;28;20081;-38
2021/09/06 22:21:06;;;;;;;9.57;6.15;;;16.30;99.90;;;;;;12463132;28;20462;-37
2021/09/06 22:27:08;;;;;;;9.13;5.97;;;16.30;99.90;;;;;;12466104;28;20498;-38
2021/09/06 22:33:10;;;;;;;11.13;6.60;;;16.30;99.90;;;;;;12463395;28;20072;-37
2021/09/06 22:39:13;;;;;;;12.77;7.75;;;16.10;99.90;;;;;;12462010;28;20148;-37
2021/09/06 22:45:14;;;;;;;10.98;6.38;;;16.10;99.90;;;;;;12463259;28;20050;-38
2021/09/06 22:51:19;;;;;;;10.80;6.97;;;16.20;99.90;;;;;;12458581;28;20553;-37
2021/09/06 22:57:21;;;;;;;12.95;7.25;;;16.10;99.90;;;;;;12470131;28;20058;-37
2021/09/06 23:03:35;;;;;;;11.73;7.10;;;16.00;99.90;;;;;;12462045;28;20061;-37
2021/09/06 23:09:37;;;;;;;12.13;7.43;;;16.00;99.90;;;;;;12463500;28;20046;-37
2021/09/06 23:15:39;;;;;;;11.63;7.35;;;16.10;99.90;;;;;;12462880;28;20136;-37
2021/09/06 23:21:41;;;;;;;10.15;7.38;;;16.00;99.90;;;;;;12508775;28;20135;-37
2021/09/06 23:27:43;;;;;;;9.68;6.90;;;16.00;99.90;;;;;;12514144;28;20049;-36
2021/09/06 23:33:45;;;;;;;12.10;7.30;;;16.00;99.90;;;;;;12510737;28;20600;-37
2021/09/06 23:39:47;;;;;;;11.40;6.90;;;15.90;99.90;;;;;;12495563;28;20541;-38
2021/09/06 23:45:49;;;;;;;11.63;6.63;;;15.80;99.90;;;;;;12511467;28;20144;-37
2021/09/06 23:51:50;;;;;;;14.13;7.57;;;15.70;99.90;;;;;;12512357;28;20053;-37
2021/09/06 23:57:53;;;;;;;10.55;6.35;;;15.70;99.90;;;;;;12512364;28;20092;-36
